Time;durP1;ratioP1;P1;durP2;ratioP2;P2;SDS_P1;SDS_P2;PMS_P1;PMS_P2;Temp;Humidity;BMP_temperature;BMP_pressure;BME280_temperature;BME280_humidity;BME280_pressure;Samples;Min_cycle;Max_cycle;Signal;HPM_P1;HPM_P2
2023/11/28 00:02:09;;;;;;;1.70;1.40;;;2.50;98.20;;;;;;5051806;28;20490;-83
2023/11/28 00:04:36;;;;;;;1.67;1.40;;;2.50;98.20;;;;;;5060080;28;20482;-83
2023/11/28 00:07:02;;;;;;;1.70;1.50;;;2.50;98.20;;;;;;5054211;28;20547;-83
2023/11/28 00:09:31;;;;;;;1.67;1.40;;;2.40;98.20;;;;;;5057051;28;20458;-83
2023/11/28 00:11:58;;;;;;;1.70;1.40;;;2.40;98.20;;;;;;5053388;28;20503;-83
2023/11/28 00:14:25;;;;;;;1.70;1.57;;;2.40;98.20;;;;;;5060457;28;20478;-82
2023/11/28 00:16:52;;;;;;;1.70;1.50;;;2.30;98.20;;;;;;5044895;28;20482;-83
2023/11/28 00:19:19;;;;;;;1.70;1.50;;;2.30;98.20;;;;;;5053721;28;20473;-83
2023/11/28 00:21:48;;;;;;;1.70;1.50;;;2.30;98.20;;;;;;5053877;28;20487;-81
2023/11/28 00:24:15;;;;;;;1.67;1.40;;;2.30;98.20;;;;;;5064969;28;20481;-81
2023/11/28 00:26:43;;;;;;;1.70;1.40;;;2.40;98.20;;;;;;5052020;28;20473;-82
2023/11/28 00:29:10;;;;;;;1.70;1.50;;;2.40;98.20;;;;;;5053793;28;20468;-81
2023/11/28 00:31:37;;;;;;;1.97;1.77;;;2.40;98.20;;;;;;5048791;28;20545;-81
2023/11/28 00:34:04;;;;;;;1.70;1.40;;;2.40;98.20;;;;;;5059798;28;21023;-80
2023/11/28 00:36:31;;;;;;;1.70;1.40;;;2.30;98.20;;;;;;5049123;28;20477;-81
2023/11/28 00:38:57;;;;;;;1.70;1.50;;;2.30;98.20;;;;;;5063764;28;20466;-81
2023/11/28 00:41:25;;;;;;;1.70;1.50;;;2.30;98.20;;;;;;5047075;28;20488;-82
2023/11/28 00:43:54;;;;;;;1.70;1.60;;;2.30;98.20;;;;;;5066474;28;20555;-82
2023/11/28 00:46:22;;;;;;;1.70;1.50;;;2.30;98.20;;;;;;5047336;28;20961;-84
2023/11/28 00:48:49;;;;;;;1.70;1.60;;;2.30;98.20;;;;;;5063801;28;20477;-82
2023/11/28 00:51:16;;;;;;;1.70;1.40;;;2.30;98.20;;;;;;5044841;28;20478;-82
2023/11/28 00:53:42;;;;;;;1.70;1.60;;;2.30;98.20;;;;;;5063190;28;20484;-84
2023/11/28 00:56:17;;;;;;;1.70;1.40;;;2.30;98.20;;;;;;5042436;28;20866;-81
2023/11/28 00:58:44;;;;;;;1.70;1.60;;;2.30;98.20;;;;;;5057803;28;20454;-82
2023/11/28 01:01:12;;;;;;;1.80;1.70;;;2.30;98.20;;;;;;5046762;28;20566;-83
2023/11/28 01:03:39;;;;;;;1.70;1.50;;;2.30;98.20;;;;;;5067524;28;20489;-82
2023/11/28 01:06:07;;;;;;;1.70;1.50;;;2.30;98.20;;;;;;5044735;28;20458;-82
2023/11/28 01:08:34;;;;;;;1.70;1.50;;;2.20;98.20;;;;;;5055697;28;20889;-82
2023/11/28 01:11:01;;;;;;;1.70;1.50;;;2.20;98.20;;;;;;5043043;28;20455;-80
2023/11/28 01:13:28;;;;;;;1.70;1.50;;;2.20;98.20;;;;;;5065039;28;20478;-81
2023/11/28 01:15:55;;;;;;;1.70;1.50;;;2.20;98.20;;;;;;5044710;28;20462;-82
2023/11/28 01:18:24;;;;;;;1.70;1.50;;;2.20;98.20;;;;;;5054749;28;20458;-82
2023/11/28 01:20:51;;;;;;;1.70;1.50;;;2.20;98.20;;;;;;5044862;28;20496;-81
2023/11/28 01:23:17;;;;;;;1.70;1.50;;;2.30;98.20;;;;;;5061190;28;20479;-82
2023/11/28 01:25:45;;;;;;;1.70;1.43;;;2.30;98.20;;;;;;5056595;28;20473;-82
2023/11/28 01:28:11;;;;;;;1.67;1.47;;;2.30;98.20;;;;;;5054176;28;20499;-81
2023/11/28 01:30:38;;;;;;;1.70;1.43;;;2.30;98.20;;;;;;5052478;28;20903;-81
2023/11/28 01:33:05;;;;;;;1.67;1.50;;;2.30;98.20;;;;;;5046712;28;20478;-83
2023/11/28 01:35:33;;;;;;;1.70;1.43;;;2.30;98.20;;;;;;5053362;28;20463;-81
2023/11/28 01:38:00;;;;;;;1.70;1.50;;;2.20;98.20;;;;;;5052050;28;20490;-82
2023/11/28 01:40:27;;;;;;;1.70;1.47;;;2.20;98.20;;;;;;5052577;28;20459;-81
2023/11/28 01:42:53;;;;;;;1.67;1.40;;;2.20;98.20;;;;;;5058050;28;20512;-81
2023/11/28 01:45:22;;;;;;;1.70;1.50;;;2.20;98.20;;;;;;5052568;28;20465;-81
2023/11/28 01:47:49;;;;;;;1.70;1.50;;;2.20;98.20;;;;;;5054598;28;20482;-81
2023/11/28 01:50:16;;;;;;;1.70;1.40;;;2.30;98.20;;;;;;5053982;28;20486;-82
2023/11/28 01:52:44;;;;;;;1.70;1.50;;;2.30;98.20;;;;;;5056233;28;20560;-81
2023/11/28 01:55:12;;;;;;;1.70;1.50;;;2.30;98.20;;;;;;5050561;28;20458;-82
2023/11/28 01:57:40;;;;;;;1.70;1.50;;;2.30;98.20;;;;;;5048777;28;20478;-82
2023/11/28 02:00:10;;;;;;;1.67;1.43;;;2.30;98.20;;;;;;5046866;28;20466;-82
2023/11/28 02:02:37;;;;;;;1.70;1.50;;;2.30;98.20;;;;;;5050687;28;20482;-81
2023/11/28 02:05:07;;;;;;;1.70;1.43;;;2.30;98.20;;;;;;5051566;28;20469;-81
2023/11/28 02:07:34;;;;;;;1.70;1.60;;;2.30;98.20;;;;;;5054816;28;20506;-81
2023/11/28 02:10:02;;;;;;;1.70;1.43;;;2.40;98.20;;;;;;5055082;28;20465;-80
2023/11/28 02:12:29;;;;;;;1.70;1.50;;;2.30;98.20;;;;;;5049653;28;20882;-81
2023/11/28 02:14:55;;;;;;;1.70;1.50;;;2.30;98.20;;;;;;5051917;28;20486;-79
2023/11/28 02:17:23;;;;;;;1.70;1.50;;;2.30;98.20;;;;;;5054143;28;20477;-78
2023/11/28 02:19:51;;;;;;;1.70;1.40;;;2.30;98.20;;;;;;5056558;28;20469;-80
2023/11/28 02:22:18;;;;;;;1.67;1.50;;;2.30;98.20;;;;;;5047300;28;20486;-79
2023/11/28 02:24:49;;;;;;;1.70;1.50;;;2.30;98.20;;;;;;5052421;28;20493;-79
2023/11/28 02:27:17;;;;;;;1.70;1.60;;;2.30;98.20;;;;;;5044531;28;20487;-80
2023/11/28 02:29:46;;;;;;;1.63;1.40;;;2.30;98.20;;;;;;5049032;28;20466;-79
2023/11/28 02:32:13;;;;;;;1.70;1.50;;;2.30;98.20;;;;;;5042880;28;20556;-80
2023/11/28 02:34:40;;;;;;;1.70;1.40;;;2.30;98.20;;;;;;5048376;28;20494;-80
2023/11/28 02:37:07;;;;;;;1.70;1.53;;;2.30;98.20;;;;;;5046675;28;20489;-81
2023/11/28 02:39:34;;;;;;;1.67;1.40;;;2.20;98.20;;;;;;5055556;28;20489;-81
2023/11/28 02:42:01;;;;;;;1.70;1.40;;;2.30;98.20;;;;;;5043887;28;20485;-80
2023/11/28 02:44:29;;;;;;;1.70;1.50;;;2.20;98.20;;;;;;5046097;28;20517;-80
2023/11/28 02:46:55;;;;;;;1.70;1.50;;;2.20;98.20;;;;;;5045393;28;20481;-81
2023/11/28 02:49:22;;;;;;;1.70;1.50;;;2.20;98.20;;;;;;5055105;28;20468;-81
2023/11/28 02:51:49;;;;;;;1.70;1.53;;;2.20;98.20;;;;;;5045014;28;21013;-81
2023/11/28 02:54:16;;;;;;;1.67;1.50;;;2.20;98.20;;;;;;5056425;28;20478;-81
2023/11/28 02:56:46;;;;;;;1.70;1.50;;;2.20;98.20;;;;;;5032225;28;20473;-80
2023/11/28 02:59:13;;;;;;;1.70;1.60;;;2.10;98.20;;;;;;5040753;28;20555;-80
2023/11/28 03:01:41;;;;;;;1.70;1.50;;;2.10;98.20;;;;;;5043654;28;20477;-80
2023/11/28 03:04:08;;;;;;;1.70;1.60;;;2.10;98.20;;;;;;5042556;28;20478;-80
2023/11/28 03:06:34;;;;;;;1.70;1.50;;;2.10;98.20;;;;;;5042529;28;20473;-80
2023/11/28 03:09:02;;;;;;;1.70;1.50;;;2.10;98.20;;;;;;5056883;28;20466;-79
2023/11/28 03:11:27;;;;;;;1.70;1.60;;;2.10;98.20;;;;;;5034983;28;20509;-79
2023/11/28 03:13:54;;;;;;;1.70;1.50;;;2.10;98.20;;;;;;5051901;28;20514;-79
2023/11/28 03:16:21;;;;;;;1.70;1.60;;;2.10;98.20;;;;;;5041958;28;20223;-79
2023/11/28 03:18:49;;;;;;;1.70;1.50;;;2.10;98.20;;;;;;5051188;28;20467;-79
2023/11/28 03:21:16;;;;;;;1.70;1.50;;;2.10;98.20;;;;;;5027090;28;20476;-78
2023/11/28 03:23:41;;;;;;;1.63;1.40;;;2.10;98.20;;;;;;5049904;28;20856;-79
2023/11/28 03:26:08;;;;;;;1.70;1.60;;;2.10;98.20;;;;;;5025921;28;20641;-79
2023/11/28 03:28:35;;;;;;;1.70;1.50;;;2.10;98.20;;;;;;5056105;28;20272;-80
2023/11/28 03:31:02;;;;;;;1.70;1.50;;;2.10;98.20;;;;;;5033163;28;20572;-79
2023/11/28 03:33:29;;;;;;;1.70;1.50;;;2.10;98.20;;;;;;5050068;28;20487;-78
2023/11/28 03:35:57;;;;;;;1.70;1.50;;;2.10;98.20;;;;;;5033014;28;20458;-78
2023/11/28 03:38:24;;;;;;;1.70;1.47;;;2.10;98.20;;;;;;5055973;28;20508;-78
2023/11/28 03:40:50;;;;;;;1.70;1.50;;;2.20;98.20;;;;;;5028500;28;20470;-79
2023/11/28 03:43:17;;;;;;;1.70;1.50;;;2.20;98.20;;;;;;5053173;28;20487;-79
2023/11/28 03:45:45;;;;;;;1.70;1.40;;;2.20;98.20;;;;;;5036572;28;20558;-79
2023/11/28 03:48:11;;;;;;;1.70;1.40;;;2.20;98.20;;;;;;5035641;28;20932;-79
2023/11/28 03:50:38;;;;;;;1.70;1.50;;;2.20;98.20;;;;;;5049516;28;20462;-79
2023/11/28 03:53:06;;;;;;;1.70;1.50;;;2.20;98.20;;;;;;5052450;28;20506;-79
2023/11/28 03:55:33;;;;;;;1.70;1.50;;;2.20;98.20;;;;;;5055877;28;20768;-79
2023/11/28 03:58:00;;;;;;;1.67;1.50;;;2.20;98.20;;;;;;5053417;28;20479;-79
2023/11/28 04:00:27;;;;;;;1.70;1.40;;;2.20;98.20;;;;;;5041443;28;20473;-81
2023/11/28 04:02:54;;;;;;;1.70;1.50;;;2.20;98.20;;;;;;5037612;28;20482;-80
2023/11/28 04:05:21;;;;;;;1.70;1.50;;;2.20;98.20;;;;;;5031998;28;20463;-80
2023/11/28 04:07:47;;;;;;;1.70;1.50;;;2.10;98.20;;;;;;5045511;28;20482;-80
2023/11/28 04:10:16;;;;;;;1.70;1.50;;;2.10;98.20;;;;;;5033986;28;20467;-81
2023/11/28 04:12:42;;;;;;;1.70;1.60;;;2.10;98.20;;;;;;5040577;28;20476;-80
2023/11/28 04:15:10;;;;;;;2.27;2.07;;;2.20;98.20;;;;;;5030681;28;20459;-80
2023/11/28 04:17:37;;;;;;;1.70;1.50;;;2.20;98.20;;;;;;5036533;28;20476;-79
2023/11/28 04:20:06;;;;;;;1.70;1.50;;;2.20;98.20;;;;;;5036903;28;20550;-80
2023/11/28 04:22:33;;;;;;;1.70;1.50;;;2.20;98.20;;;;;;5037308;28;20560;-81
2023/11/28 04:24:59;;;;;;;1.70;1.50;;;2.20;98.20;;;;;;5046185;28;20486;-81
2023/11/28 04:27:28;;;;;;;1.73;1.63;;;2.20;98.20;;;;;;5041339;28;20488;-81
2023/11/28 04:29:55;;;;;;;1.70;1.50;;;2.20;98.20;;;;;;5043946;28;20489;-80
2023/11/28 04:32:21;;;;;;;1.67;1.50;;;2.20;98.20;;;;;;5038972;28;21001;-80
2023/11/28 04:34:48;;;;;;;1.70;1.50;;;2.20;98.20;;;;;;5042675;28;20483;-78
2023/11/28 04:37:16;;;;;;;1.70;1.57;;;2.20;98.20;;;;;;5030019;28;20886;-79
2023/11/28 04:39:44;;;;;;;1.70;1.43;;;2.20;98.20;;;;;;5034109;28;20463;-79
2023/11/28 04:42:11;;;;;;;1.67;1.50;;;2.20;98.20;;;;;;5025813;28;20484;-79
2023/11/28 04:44:39;;;;;;;1.70;1.53;;;2.20;98.20;;;;;;5029934;28;20569;-79
2023/11/28 04:47:06;;;;;;;1.63;1.50;;;2.20;98.20;;;;;;5022364;28;20487;-79
2023/11/28 04:49:32;;;;;;;1.70;1.40;;;2.20;98.20;;;;;;5033053;28;20473;-79
2023/11/28 04:51:59;;;;;;;1.70;1.40;;;2.20;98.20;;;;;;5027657;28;20486;-79
2023/11/28 04:54:26;;;;;;;3.43;3.13;;;2.20;98.20;;;;;;5051608;28;20488;-79
2023/11/28 04:56:53;;;;;;;1.70;1.50;;;2.20;98.20;;;;;;5042357;28;20847;-79
2023/11/28 04:59:20;;;;;;;1.67;1.40;;;2.20;98.20;;;;;;5049927;28;20459;-79
2023/11/28 05:01:48;;;;;;;1.70;1.50;;;2.20;98.20;;;;;;5044301;28;20560;-79
2023/11/28 05:04:15;;;;;;;1.70;1.50;;;2.20;98.20;;;;;;5046106;28;20578;-79
2023/11/28 05:06:43;;;;;;;1.70;1.50;;;2.20;98.20;;;;;;5041435;28;20492;-79
2023/11/28 05:09:11;;;;;;;1.70;1.50;;;2.20;98.20;;;;;;5047440;28;20495;-79
2023/11/28 05:11:38;;;;;;;1.70;1.50;;;2.20;98.20;;;;;;5039583;28;20485;-79
2023/11/28 05:14:05;;;;;;;1.70;1.50;;;2.20;98.20;;;;;;5052377;28;20547;-79
2023/11/28 05:16:32;;;;;;;1.70;1.60;;;2.20;98.20;;;;;;5033713;28;20879;-79
2023/11/28 05:19:00;;;;;;;1.70;1.60;;;2.10;98.20;;;;;;5049077;28;20459;-78
2023/11/28 05:21:27;;;;;;;1.67;1.50;;;2.20;98.20;;;;;;5034411;28;20474;-78
2023/11/28 05:23:54;;;;;;;1.70;1.50;;;2.10;98.20;;;;;;5058274;28;20524;-79
2023/11/28 05:26:21;;;;;;;1.70;1.50;;;2.10;98.20;;;;;;5037823;28;20590;-79
2023/11/28 05:28:48;;;;;;;1.70;1.40;;;2.20;98.20;;;;;;5047200;28;20466;-79
2023/11/28 05:31:14;;;;;;;1.63;1.50;;;2.20;98.20;;;;;;5033278;28;20509;-79
2023/11/28 05:33:41;;;;;;;1.67;1.40;;;2.20;98.20;;;;;;5038800;28;21120;-79
2023/11/28 05:36:10;;;;;;;1.70;1.50;;;2.20;98.20;;;;;;5019829;28;20513;-79
2023/11/28 05:38:37;;;;;;;1.70;1.60;;;2.20;98.20;;;;;;5037530;28;20980;-79
2023/11/28 05:41:04;;;;;;;1.70;1.50;;;2.20;98.20;;;;;;5019157;28;21162;-78
2023/11/28 05:43:32;;;;;;;1.70;1.50;;;2.20;98.20;;;;;;5037111;28;20497;-80
2023/11/28 05:45:59;;;;;;;1.63;1.40;;;2.20;98.20;;;;;;5021053;28;20566;-80
2023/11/28 05:48:26;;;;;;;1.70;1.40;;;2.20;98.20;;;;;;5036839;28;20466;-79
2023/11/28 05:50:53;;;;;;;1.67;1.40;;;2.20;98.20;;;;;;5023338;28;20463;-79
2023/11/28 05:53:21;;;;;;;1.63;1.40;;;2.20;98.20;;;;;;5038591;28;20502;-80
2023/11/28 05:55:48;;;;;;;1.70;1.60;;;2.20;98.20;;;;;;5017439;28;20473;-78
2023/11/28 05:58:15;;;;;;;1.70;1.50;;;2.20;98.20;;;;;;5034224;28;20470;-77
2023/11/28 06:00:43;;;;;;;1.63;1.40;;;2.20;98.20;;;;;;5029691;28;20490;-78
2023/11/28 06:03:10;;;;;;;1.63;1.50;;;2.20;98.20;;;;;;5023530;28;20479;-78
2023/11/28 06:05:37;;;;;;;1.70;1.50;;;2.20;98.20;;;;;;5020183;28;20463;-78
2023/11/28 06:08:05;;;;;;;1.70;1.50;;;2.20;98.20;;;;;;5017444;28;20490;-77
2023/11/28 06:10:33;;;;;;;1.70;1.60;;;2.20;98.20;;;;;;5022250;28;20475;-77
2023/11/28 06:13:00;;;;;;;1.63;1.50;;;2.20;98.20;;;;;;5027573;28;20779;-78
2023/11/28 06:15:27;;;;;;;1.67;1.50;;;2.20;98.20;;;;;;5026140;28;20507;-78
2023/11/28 06:17:54;;;;;;;1.63;1.40;;;2.20;98.20;;;;;;5022432;28;21112;-80
2023/11/28 06:20:21;;;;;;;1.70;1.50;;;2.20;98.20;;;;;;5022003;28;20463;-80
2023/11/28 06:22:48;;;;;;;1.63;1.37;;;2.10;98.20;;;;;;5027651;28;21055;-78
2023/11/28 06:25:15;;;;;;;1.70;1.40;;;2.10;98.20;;;;;;5026259;28;20513;-80
2023/11/28 06:27:43;;;;;;;1.67;1.43;;;2.20;98.20;;;;;;5023614;28;20483;-80
2023/11/28 06:30:12;;;;;;;1.70;1.50;;;2.10;98.20;;;;;;5020838;28;20546;-80
2023/11/28 06:32:39;;;;;;;1.70;1.50;;;2.10;98.20;;;;;;5019341;28;20506;-80
2023/11/28 06:35:09;;;;;;;1.70;1.50;;;2.20;98.20;;;;;;5020832;28;20832;-79
2023/11/28 06:37:41;;;;;;;1.70;1.50;;;2.20;98.20;;;;;;5026591;28;20481;-77
2023/11/28 06:40:09;;;;;;;1.67;1.50;;;2.10;98.20;;;;;;5030820;28;20471;-79
2023/11/28 06:42:36;;;;;;;1.70;1.50;;;2.10;98.20;;;;;;5027018;28;20574;-78
2023/11/28 06:45:05;;;;;;;1.70;1.50;;;2.10;98.20;;;;;;5029811;28;20562;-78
2023/11/28 06:47:32;;;;;;;1.70;1.60;;;2.10;98.20;;;;;;5020226;28;20570;-79
2023/11/28 06:49:59;;;;;;;1.70;1.53;;;2.10;98.20;;;;;;5024727;28;20464;-79
2023/11/28 06:52:26;;;;;;;1.80;1.70;;;2.10;98.20;;;;;;5022683;28;21112;-79
2023/11/28 06:54:53;;;;;;;2.47;2.27;;;2.10;98.20;;;;;;5020423;28;20511;-78
2023/11/28 06:57:19;;;;;;;1.63;1.40;;;2.10;98.20;;;;;;5020558;28;20483;-79
2023/11/28 06:59:46;;;;;;;1.70;1.60;;;2.10;98.20;;;;;;5021977;28;20496;-78
2023/11/28 07:02:16;;;;;;;1.63;1.40;;;2.10;98.20;;;;;;5017903;28;20482;-79
2023/11/28 07:04:42;;;;;;;1.70;1.50;;;2.10;98.20;;;;;;5017240;28;20574;-78
2023/11/28 07:07:09;;;;;;;3.40;2.60;;;2.10;98.20;;;;;;5017112;28;20497;-77
2023/11/28 07:09:37;;;;;;;1.70;1.53;;;2.10;98.20;;;;;;5027632;28;20472;-78
2023/11/28 07:12:04;;;;;;;2.00;1.80;;;2.10;98.20;;;;;;5021362;28;20486;-79
2023/11/28 07:14:34;;;;;;;1.70;1.50;;;2.00;98.20;;;;;;5023571;28;20475;-79
2023/11/28 07:17:01;;;;;;;1.70;1.50;;;2.00;98.20;;;;;;5013824;28;21032;-80
2023/11/28 07:19:29;;;;;;;1.70;1.60;;;2.00;98.20;;;;;;5030643;28;20459;-80
2023/11/28 07:21:56;;;;;;;1.60;1.40;;;2.00;98.20;;;;;;5013966;28;20537;-80
2023/11/28 07:24:23;;;;;;;1.70;1.50;;;2.00;98.20;;;;;;5027317;28;20514;-79
2023/11/28 07:26:50;;;;;;;1.67;1.47;;;2.00;98.20;;;;;;5019119;28;20474;-80
2023/11/28 07:29:17;;;;;;;1.67;1.47;;;1.90;98.20;;;;;;5022526;28;20467;-81
2023/11/28 07:31:44;;;;;;;1.70;1.50;;;1.90;98.20;;;;;;5012324;28;20486;-80
2023/11/28 07:34:10;;;;;;;1.67;1.50;;;1.90;98.20;;;;;;5031581;28;20577;-80
2023/11/28 07:36:39;;;;;;;1.70;1.47;;;1.90;98.20;;;;;;5015334;28;20498;-79
2023/11/28 07:39:09;;;;;;;1.70;1.50;;;1.90;98.20;;;;;;5033325;28;20646;-80
2023/11/28 07:41:36;;;;;;;1.70;1.50;;;1.90;98.20;;;;;;5019751;28;20487;-80
2023/11/28 07:44:03;;;;;;;1.70;1.50;;;1.90;98.20;;;;;;5033367;28;20509;-80
2023/11/28 07:46:30;;;;;;;1.70;1.50;;;1.90;98.20;;;;;;5016853;28;20478;-80
2023/11/28 07:48:57;;;;;;;1.70;1.50;;;1.90;98.20;;;;;;5032025;28;20582;-79
2023/11/28 07:51:25;;;;;;;1.70;1.50;;;1.90;98.20;;;;;;5018891;28;21015;-80
2023/11/28 07:53:53;;;;;;;1.70;1.50;;;1.90;98.20;;;;;;5020885;28;20506;-80
2023/11/28 07:56:20;;;;;;;1.70;1.60;;;1.90;98.20;;;;;;5010725;28;20831;-80
2023/11/28 07:58:46;;;;;;;1.70;1.50;;;1.90;98.20;;;;;;5029078;28;20945;-80
2023/11/28 08:01:13;;;;;;;1.70;1.50;;;1.90;98.20;;;;;;5017427;28;20474;-79
2023/11/28 08:03:40;;;;;;;1.70;1.50;;;1.90;98.20;;;;;;5039408;28;20499;-80
2023/11/28 08:06:07;;;;;;;1.70;1.47;;;1.90;98.20;;;;;;5011531;28;20947;-79
2023/11/28 08:08:34;;;;;;;1.63;1.50;;;1.90;98.20;;;;;;5032073;28;20942;-80
2023/11/28 08:11:02;;;;;;;1.70;1.50;;;1.90;98.20;;;;;;5018527;28;20469;-79
2023/11/28 08:13:31;;;;;;;1.70;1.57;;;1.90;98.20;;;;;;5031677;28;20654;-79
2023/11/28 08:15:58;;;;;;;1.70;1.53;;;1.80;98.20;;;;;;5010098;28;20471;-79
2023/11/28 08:18:26;;;;;;;1.67;1.50;;;1.80;98.20;;;;;;5033556;28;20917;-80
2023/11/28 08:20:52;;;;;;;1.67;1.40;;;1.90;98.20;;;;;;5019598;28;20503;-80
2023/11/28 08:23:19;;;;;;;1.67;1.40;;;1.90;98.20;;;;;;5038453;28;20865;-80
2023/11/28 08:25:46;;;;;;;1.67;1.43;;;1.90;98.20;;;;;;5030615;28;20470;-79
2023/11/28 08:28:15;;;;;;;2.93;2.77;;;1.90;98.20;;;;;;5038728;28;20513;-80
2023/11/28 08:30:42;;;;;;;1.70;1.50;;;1.90;98.20;;;;;;5043633;28;20462;-79
2023/11/28 08:33:08;;;;;;;1.70;1.50;;;1.80;98.20;;;;;;5042551;28;20489;-79
2023/11/28 08:35:35;;;;;;;1.70;1.50;;;1.80;98.20;;;;;;5046330;28;20462;-79
2023/11/28 08:38:02;;;;;;;1.70;1.50;;;1.80;98.20;;;;;;5050048;28;20481;-79
2023/11/28 08:40:29;;;;;;;1.70;1.50;;;1.80;98.20;;;;;;5048711;28;20469;-80
2023/11/28 08:42:56;;;;;;;1.70;1.60;;;1.80;98.20;;;;;;5044471;28;20481;-79
2023/11/28 08:45:24;;;;;;;1.70;1.60;;;1.70;98.20;;;;;;5038296;28;20467;-79
2023/11/28 08:47:51;;;;;;;1.70;1.50;;;1.80;98.20;;;;;;5043548;28;20480;-79
2023/11/28 08:50:18;;;;;;;1.70;1.50;;;1.80;98.20;;;;;;5037855;28;20518;-79
2023/11/28 08:52:45;;;;;;;1.70;1.60;;;1.80;98.20;;;;;;5050263;28;20499;-79
2023/11/28 08:55:12;;;;;;;1.70;1.50;;;1.80;98.20;;;;;;5039020;28;20463;-79
2023/11/28 08:57:39;;;;;;;1.67;1.50;;;1.90;98.20;;;;;;5045180;28;20517;-79
2023/11/28 09:00:07;;;;;;;1.67;1.50;;;1.90;98.20;;;;;;5046508;28;20498;-80
2023/11/28 09:02:37;;;;;;;1.70;1.60;;;1.90;98.20;;;;;;5033069;28;20632;-79
2023/11/28 09:05:05;;;;;;;1.70;1.50;;;1.90;98.20;;;;;;5058962;28;20486;-80
2023/11/28 09:07:33;;;;;;;1.70;1.50;;;2.00;98.20;;;;;;5052334;28;20477;-79
2023/11/28 09:09:59;;;;;;;1.67;1.50;;;2.00;98.20;;;;;;5050848;28;20463;-80
2023/11/28 09:12:26;;;;;;;1.70;1.60;;;2.10;98.20;;;;;;5049205;28;20913;-81
2023/11/28 09:14:53;;;;;;;1.70;1.50;;;2.10;98.20;;;;;;5047602;28;20537;-81
2023/11/28 09:17:20;;;;;;;1.63;1.40;;;2.20;98.20;;;;;;5049974;28;20536;-81
2023/11/28 09:19:48;;;;;;;1.67;1.50;;;2.20;98.20;;;;;;5053782;28;20467;-81
2023/11/28 09:22:15;;;;;;;1.70;1.50;;;2.20;98.20;;;;;;5050920;28;20482;-81
2023/11/28 09:24:42;;;;;;;1.70;1.50;;;2.30;98.20;;;;;;5055611;28;20496;-81
2023/11/28 09:27:10;;;;;;;1.67;1.50;;;2.20;98.20;;;;;;5044514;28;20573;-81
2023/11/28 09:29:37;;;;;;;1.63;1.50;;;2.30;98.20;;;;;;5057772;28;20471;-81
2023/11/28 09:32:04;;;;;;;1.67;1.50;;;2.30;98.20;;;;;;5045583;28;20565;-80
2023/11/28 09:34:32;;;;;;;1.60;1.40;;;2.30;98.20;;;;;;5051735;28;20481;-80
2023/11/28 09:37:01;;;;;;;1.70;1.40;;;2.30;98.20;;;;;;5043993;28;20549;-81
2023/11/28 09:39:28;;;;;;;1.60;1.40;;;2.30;98.20;;;;;;5058792;28;21127;-81
2023/11/28 09:41:56;;;;;;;1.70;1.50;;;2.30;98.20;;;;;;5048727;28;20477;-80
2023/11/28 09:44:26;;;;;;;1.70;1.50;;;2.40;98.20;;;;;;5055254;28;20490;-81
2023/11/28 09:46:56;;;;;;;1.70;1.40;;;2.40;98.20;;;;;;5045298;28;20481;-78
2023/11/28 09:49:30;;;;;;;1.60;1.40;;;2.40;98.20;;;;;;5054257;28;20469;-79
2023/11/28 09:52:01;;;;;;;1.63;1.40;;;2.40;98.20;;;;;;5052112;28;20484;-80
2023/11/28 09:54:30;;;;;;;1.70;1.60;;;2.50;98.20;;;;;;5056087;28;20490;-80
2023/11/28 09:56:57;;;;;;;1.67;1.40;;;2.60;98.20;;;;;;5046469;28;20933;-81
2023/11/28 09:59:30;;;;;;;1.70;1.40;;;2.60;98.20;;;;;;5057602;28;20470;-81
2023/11/28 10:02:01;;;;;;;1.70;1.50;;;2.70;98.20;;;;;;5048028;28;20576;-80
2023/11/28 10:04:28;;;;;;;1.63;1.40;;;2.80;98.20;;;;;;5053283;28;20532;-81
2023/11/28 10:06:55;;;;;;;1.63;1.40;;;2.90;98.20;;;;;;5046405;28;21090;-79
2023/11/28 10:09:25;;;;;;;1.63;1.40;;;2.90;98.20;;;;;;5051749;28;20979;-81
2023/11/28 10:11:56;;;;;;;1.63;1.30;;;2.90;98.20;;;;;;5046934;28;20474;-80
2023/11/28 10:14:23;;;;;;;1.70;1.50;;;2.90;98.20;;;;;;5048651;28;20586;-81
2023/11/28 10:16:51;;;;;;;1.63;1.50;;;2.90;98.20;;;;;;5046789;28;20481;-80
2023/11/28 10:19:18;;;;;;;1.63;1.40;;;2.90;98.20;;;;;;5055230;28;20530;-80
2023/11/28 10:21:46;;;;;;;1.60;1.40;;;2.90;98.20;;;;;;5039291;28;20474;-80
2023/11/28 10:24:13;;;;;;;1.70;1.50;;;2.90;98.20;;;;;;5057760;28;20494;-80
2023/11/28 10:26:41;;;;;;;1.67;1.40;;;2.90;98.20;;;;;;5041124;28;20470;-80
2023/11/28 10:29:08;;;;;;;1.63;1.40;;;2.90;98.20;;;;;;5058239;28;20850;-80
2023/11/28 10:31:45;;;;;;;1.67;1.40;;;2.80;98.20;;;;;;5035594;28;21033;-81
2023/11/28 10:34:18;;;;;;;1.70;1.40;;;2.80;98.20;;;;;;5049646;28;20494;-80
2023/11/28 10:36:51;;;;;;;1.60;1.40;;;2.70;98.20;;;;;;5043434;28;20556;-81
2023/11/28 10:39:19;;;;;;;1.63;1.37;;;2.70;98.20;;;;;;5053411;28;20474;-80
2023/11/28 10:41:48;;;;;;;1.70;1.50;;;2.80;98.20;;;;;;5037924;28;20865;-79
2023/11/28 10:44:14;;;;;;;1.60;1.47;;;2.90;98.20;;;;;;5045602;28;20487;-80
2023/11/28 10:46:42;;;;;;;1.60;1.40;;;3.00;98.20;;;;;;5036217;28;20945;-79
2023/11/28 10:49:08;;;;;;;1.70;1.40;;;3.00;98.20;;;;;;5048643;28;20535;-79
2023/11/28 10:51:36;;;;;;;1.70;1.60;;;3.10;98.20;;;;;;5034108;28;20913;-79
2023/11/28 10:54:07;;;;;;;1.70;1.50;;;3.10;98.20;;;;;;5046589;28;20486;-80
2023/11/28 10:56:46;;;;;;;1.67;1.40;;;3.10;98.20;;;;;;5029600;28;20489;-80
2023/11/28 10:59:22;;;;;;;1.63;1.40;;;3.10;98.20;;;;;;5044088;28;20458;-80
2023/11/28 11:01:50;;;;;;;1.70;1.53;;;3.00;98.20;;;;;;5033523;28;20588;-79
2023/11/28 11:04:16;;;;;;;1.70;1.40;;;3.00;98.20;;;;;;5041381;28;20494;-79
2023/11/28 11:06:43;;;;;;;1.60;1.30;;;2.90;98.20;;;;;;5033848;28;20516;-79
2023/11/28 11:09:12;;;;;;;1.70;1.50;;;2.90;98.20;;;;;;5045003;28;20468;-79
2023/11/28 11:11:41;;;;;;;1.63;1.40;;;2.90;98.20;;;;;;5036133;28;20667;-80
2023/11/28 11:14:15;;;;;;;1.60;1.40;;;2.90;98.20;;;;;;5049568;28;20506;-79
2023/11/28 11:16:51;;;;;;;1.63;1.40;;;3.00;98.20;;;;;;5036098;28;21720;-79
2023/11/28 11:19:19;;;;;;;1.63;1.40;;;3.00;98.20;;;;;;5046586;28;20472;-79
2023/11/28 11:21:53;;;;;;;1.67;1.40;;;3.10;98.20;;;;;;5038178;28;20478;-80
2023/11/28 11:24:21;;;;;;;1.63;1.40;;;3.20;98.20;;;;;;5048824;28;20506;-79
2023/11/28 11:26:49;;;;;;;1.63;1.40;;;3.20;98.20;;;;;;5038325;28;20488;-80
2023/11/28 11:29:37;;;;;;;1.63;1.40;;;3.20;98.20;;;;;;5042624;28;20459;-79
2023/11/28 11:32:10;;;;;;;1.60;1.40;;;3.20;98.20;;;;;;5034395;28;20478;-80
2023/11/28 11:34:40;;;;;;;1.60;1.40;;;3.20;98.20;;;;;;5042801;28;20565;-79
2023/11/28 11:37:12;;;;;;;1.63;1.40;;;3.20;98.20;;;;;;5040334;28;20531;-80
2023/11/28 11:39:39;;;;;;;1.70;1.40;;;3.20;98.20;;;;;;5045946;28;20561;-80
2023/11/28 11:42:12;;;;;;;1.63;1.33;;;3.20;98.20;;;;;;5037881;28;20854;-80
2023/11/28 11:44:41;;;;;;;1.60;1.30;;;3.20;98.20;;;;;;5045811;28;20578;-79
2023/11/28 11:47:21;;;;;;;1.60;1.30;;;3.20;98.20;;;;;;5034887;28;20541;-79
2023/11/28 11:49:49;;;;;;;1.60;1.37;;;3.10;98.20;;;;;;5047749;28;20728;-80
2023/11/28 11:52:18;;;;;;;2.00;1.80;;;3.10;98.20;;;;;;4998075;28;1167907;-79
2023/11/28 11:54:46;;;;;;;1.63;1.40;;;3.20;98.20;;;;;;5048412;28;20675;-80
2023/11/28 11:57:14;;;;;;;1.60;1.30;;;3.20;98.20;;;;;;5036178;28;20484;-80
2023/11/28 11:59:42;;;;;;;1.60;1.30;;;3.20;98.20;;;;;;5043517;28;20541;-80
2023/11/28 12:02:09;;;;;;;1.60;1.30;;;3.20;98.20;;;;;;5043306;28;20489;-80
2023/11/28 12:04:43;;;;;;;1.70;1.60;;;3.20;98.20;;;;;;5049860;28;20486;-80
2023/11/28 12:07:12;;;;;;;1.67;1.40;;;3.20;98.20;;;;;;5038698;28;20470;-80
2023/11/28 12:09:40;;;;;;;1.70;1.40;;;3.20;98.20;;;;;;5037437;28;20463;-80
2023/11/28 12:12:08;;;;;;;1.70;1.40;;;3.30;98.20;;;;;;5042238;28;20566;-80
2023/11/28 12:14:35;;;;;;;1.60;1.40;;;3.40;98.20;;;;;;5050798;28;20984;-80
2023/11/28 12:17:02;;;;;;;1.60;1.40;;;3.40;98.20;;;;;;5037093;28;20478;-80
2023/11/28 12:19:30;;;;;;;1.67;1.43;;;3.40;98.20;;;;;;5044625;28;20454;-80
2023/11/28 12:22:01;;;;;;;1.67;1.40;;;3.40;98.20;;;;;;5041047;28;20493;-80
2023/11/28 12:24:31;;;;;;;1.63;1.40;;;3.40;98.20;;;;;;5049401;28;20490;-81
2023/11/28 12:27:03;;;;;;;1.60;1.40;;;3.40;98.20;;;;;;5040027;28;21082;-80
2023/11/28 12:33:03;;;;;;;1.70;1.40;;;3.40;98.20;;;;;;4983294;28;20472;-80
2023/11/28 12:38:53;;;;;;;1.60;1.40;;;3.50;98.20;;;;;;5011634;28;20477;-80
2023/11/28 12:41:20;;;;;;;1.63;1.40;;;3.40;98.20;;;;;;5036713;28;20469;-81
2023/11/28 12:43:55;;;;;;;1.70;1.50;;;3.40;98.20;;;;;;5051091;28;21022;-80
2023/11/28 12:46:25;;;;;;;1.60;1.40;;;3.40;98.20;;;;;;5040762;28;20477;-79
2023/11/28 12:49:02;;;;;;;1.60;1.40;;;3.60;98.20;;;;;;5049947;28;20450;-79
2023/11/28 12:54:17;;;;;;;1.63;1.30;;;4.20;98.20;;;;;;5048934;28;21107;-79
2023/11/28 12:56:46;;;;;;;1.67;1.43;;;4.40;98.20;;;;;;5037553;28;20506;-79
2023/11/28 12:59:14;;;;;;;1.63;1.30;;;4.60;98.20;;;;;;5051390;28;21090;-80
2023/11/28 13:01:42;;;;;;;1.70;1.40;;;4.60;98.20;;;;;;5035458;28;20509;-79
2023/11/28 13:04:09;;;;;;;1.67;1.40;;;4.60;98.20;;;;;;5051465;28;20894;-79
2023/11/28 13:06:38;;;;;;;1.63;1.37;;;4.50;98.20;;;;;;5037516;28;20935;-79
2023/11/28 13:09:07;;;;;;;1.70;1.40;;;4.50;98.20;;;;;;5049239;28;20483;-80
2023/11/28 13:11:36;;;;;;;1.63;1.30;;;4.40;98.20;;;;;;5032206;28;20575;-80